Time;durP1;ratioP1;P1;durP2;ratioP2;P2;SDS_P1;SDS_P2;PMS_P1;PMS_P2;Temp;Humidity;BMP_temperature;BMP_pressure;BME280_temperature;BME280_humidity;BME280_pressure;Samples;Min_cycle;Max_cycle;Signal;HPM_P1;HPM_P2
2023/06/23 00:01:40;;;;;;;34.58;26.08;;;;;;;;;;5033929;28;20393;-74
2023/06/23 00:04:06;;;;;;;39.90;27.50;;;;;;;;;;5034227;28;20037;-74
2023/06/23 00:06:33;;;;;;;36.35;28.73;;;;;;;;;;5034128;28;20029;-74
2023/06/23 00:09:01;;;;;;;35.22;25.77;;;;;;;;;;5034115;28;20475;-74
2023/06/23 00:11:28;;;;;;;37.33;29.42;;;;;;;;;;5034302;28;20028;-74
2023/06/23 00:13:54;;;;;;;37.25;29.42;;;;;;;;;;5034390;28;20024;-74
2023/06/23 00:16:20;;;;;;;40.75;30.35;;;;;;;;;;5034193;28;20576;-74
2023/06/23 00:18:46;;;;;;;35.95;29.20;;;;;;;;;;5034038;28;20037;-74
2023/06/23 00:21:12;;;;;;;38.47;29.13;;;;;;;;;;5033982;28;20119;-74
2023/06/23 00:23:39;;;;;;;38.78;27.83;;;;;;;;;;5034386;28;20044;-74
2023/06/23 00:26:07;;;;;;;42.60;30.85;;;;;;;;;;5034088;28;20514;-74
2023/06/23 00:28:33;;;;;;;40.45;29.85;;;;;;;;;;5034146;28;20024;-74
2023/06/23 00:30:59;;;;;;;45.30;32.17;;;;;;;;;;5033880;28;20104;-74
2023/06/23 00:33:25;;;;;;;47.85;34.58;;;;;;;;;;5033722;28;20021;-74
2023/06/23 00:35:51;;;;;;;44.85;36.78;;;;;;;;;;5033506;28;20029;-73
2023/06/23 00:38:17;;;;;;;43.92;33.95;;;;;;;;;;5033014;28;20087;-74
2023/06/23 00:40:44;;;;;;;48.22;37.80;;;;;;;;;;5033489;28;20365;-74
2023/06/23 00:43:10;;;;;;;47.95;36.45;;;;;;;;;;5033774;28;20049;-74
2023/06/23 00:45:36;;;;;;;50.63;38.17;;;;;;;;;;5033496;28;20407;-74
2023/06/23 00:48:05;;;;;;;46.92;36.00;;;;;;;;;;5033377;28;20071;-74
2023/06/23 00:50:32;;;;;;;48.20;37.65;;;;;;;;;;5033192;28;20368;-74
2023/06/23 00:52:58;;;;;;;48.38;35.60;;;;;;;;;;5032832;28;20057;-74
2023/06/23 00:55:28;;;;;;;47.22;36.15;;;;;;;;;;5033297;28;20029;-74
2023/06/23 00:57:54;;;;;;;44.60;34.95;;;;;;;;;;5033361;28;20033;-74
2023/06/23 01:00:21;;;;;;;41.97;32.95;;;;;;;;;;5033107;28;20026;-74
2023/06/23 01:02:49;;;;;;;43.40;32.60;;;;;;;;;;5033135;28;20017;-74
2023/06/23 01:05:16;;;;;;;45.90;34.33;;;;;;;;;;5033491;28;20029;-73
2023/06/23 01:07:49;;;;;;;45.35;34.97;;;;;;;;;;5033091;28;20071;-74
2023/06/23 01:10:18;;;;;;;42.85;34.00;;;;;;;;;;5033180;28;20471;-74
2023/06/23 01:12:59;;;;;;;44.20;33.85;;;;;;;;;;5032991;28;20507;-74
2023/06/23 01:15:32;;;;;;;42.85;31.25;;;;;;;;;;5033158;28;20033;-74
2023/06/23 01:18:05;;;;;;;40.20;29.73;;;;;;;;;;5033095;28;20472;-74
2023/06/23 01:20:33;;;;;;;39.83;30.08;;;;;;;;;;5032903;28;20029;-74
2023/06/23 01:23:07;;;;;;;39.22;28.75;;;;;;;;;;5033105;28;20342;-74
2023/06/23 01:25:41;;;;;;;36.42;27.85;;;;;;;;;;5033027;28;20026;-74
2023/06/23 01:28:27;;;;;;;33.92;25.25;;;;;;;;;;5032963;28;20033;-73
2023/06/23 01:30:54;;;;;;;36.08;25.17;;;;;;;;;;5032653;28;20049;-74
2023/06/23 01:33:22;;;;;;;31.95;23.33;;;;;;;;;;5032761;28;20022;-74
2023/06/23 01:35:52;;;;;;;34.35;24.63;;;;;;;;;;5033039;28;20017;-74
2023/06/23 01:38:20;;;;;;;34.38;24.27;;;;;;;;;;5032754;28;20022;-74
2023/06/23 01:40:49;;;;;;;31.38;23.65;;;;;;;;;;5032537;28;20034;-74
2023/06/23 01:43:17;;;;;;;32.17;21.65;;;;;;;;;;5032673;28;20049;-74
2023/06/23 01:45:44;;;;;;;37.90;23.85;;;;;;;;;;5032591;28;20022;-74
2023/06/23 01:48:12;;;;;;;33.55;22.10;;;;;;;;;;5032618;28;20025;-74
2023/06/23 01:51:12;;;;;;;31.35;21.92;;;;;;;;;;5031278;28;20057;-75
2023/06/23 01:53:38;;;;;;;30.75;21.95;;;;;;;;;;5033898;28;20096;-74
2023/06/23 01:56:06;;;;;;;28.83;21.45;;;;;;;;;;5033498;28;20368;-74
2023/06/23 01:58:33;;;;;;;33.33;22.45;;;;;;;;;;5033344;28;20037;-74
2023/06/23 02:01:00;;;;;;;31.65;23.08;;;;;;;;;;5033034;28;20040;-74
2023/06/23 02:03:28;;;;;;;34.65;22.40;;;;;;;;;;5032590;28;20029;-74
2023/06/23 02:05:55;;;;;;;31.05;22.08;;;;;;;;;;5032595;28;20155;-74
2023/06/23 02:08:23;;;;;;;29.90;23.58;;;;;;;;;;5032656;28;20049;-74
2023/06/23 02:10:50;;;;;;;35.60;23.13;;;;;;;;;;5032804;28;20029;-74
2023/06/23 02:13:17;;;;;;;30.70;21.00;;;;;;;;;;5032579;28;20112;-74
2023/06/23 02:15:43;;;;;;;31.02;19.75;;;;;;;;;;5032675;28;20083;-75
2023/06/23 02:18:10;;;;;;;33.20;21.67;;;;;;;;;;5032430;28;20026;-75
2023/06/23 02:20:36;;;;;;;30.08;21.17;;;;;;;;;;5032363;28;20096;-75
2023/06/23 02:23:02;;;;;;;33.45;23.63;;;;;;;;;;5032831;28;20408;-74
2023/06/23 02:25:29;;;;;;;31.38;20.88;;;;;;;;;;5032594;28;20022;-74
2023/06/23 02:27:56;;;;;;;30.83;19.55;;;;;;;;;;5032342;28;20056;-74
2023/06/23 02:30:22;;;;;;;31.52;20.30;;;;;;;;;;5032601;28;20021;-75
2023/06/23 02:32:48;;;;;;;31.02;21.27;;;;;;;;;;5032480;28;20029;-74
2023/06/23 02:35:15;;;;;;;29.10;20.58;;;;;;;;;;5032407;28;20083;-74
2023/06/23 02:37:44;;;;;;;32.05;21.20;;;;;;;;;;5032438;28;20056;-75
2023/06/23 02:40:16;;;;;;;30.20;20.85;;;;;;;;;;5032507;28;20030;-75
2023/06/23 02:42:43;;;;;;;33.83;21.73;;;;;;;;;;5032371;28;20021;-74
2023/06/23 02:45:13;;;;;;;32.45;21.48;;;;;;;;;;5032204;28;20431;-75
2023/06/23 02:47:40;;;;;;;30.73;20.85;;;;;;;;;;5032389;28;20060;-75
2023/06/23 02:50:11;;;;;;;35.40;20.88;;;;;;;;;;5032249;28;20021;-75
2023/06/23 02:52:41;;;;;;;33.25;22.10;;;;;;;;;;5032281;28;20055;-75
2023/06/23 02:55:08;;;;;;;31.85;22.05;;;;;;;;;;5032449;28;20671;-74
2023/06/23 02:57:35;;;;;;;34.63;22.05;;;;;;;;;;5032036;28;20518;-75
2023/06/23 03:00:05;;;;;;;38.67;22.30;;;;;;;;;;5032328;28;20037;-74
2023/06/23 03:02:32;;;;;;;34.97;22.77;;;;;;;;;;5034362;28;20029;-75
2023/06/23 03:04:59;;;;;;;35.05;22.77;;;;;;;;;;5035696;28;20404;-75
2023/06/23 03:07:25;;;;;;;36.15;22.73;;;;;;;;;;5035533;28;20018;-75
2023/06/23 03:09:51;;;;;;;38.67;23.95;;;;;;;;;;5035546;28;20036;-75
2023/06/23 03:12:18;;;;;;;41.08;23.45;;;;;;;;;;5035491;28;20025;-75
2023/06/23 03:14:45;;;;;;;36.67;22.35;;;;;;;;;;5035496;28;20021;-74
2023/06/23 03:17:12;;;;;;;31.20;21.05;;;;;;;;;;5035375;28;20026;-74
2023/06/23 03:19:45;;;;;;;33.45;21.50;;;;;;;;;;5035699;28;20017;-75
2023/06/23 03:22:12;;;;;;;27.58;19.02;;;;;;;;;;5035741;28;20468;-74
2023/06/23 03:24:39;;;;;;;34.78;19.60;;;;;;;;;;5035306;28;20033;-74
2023/06/23 03:27:09;;;;;;;30.15;18.35;;;;;;;;;;5035171;28;20022;-74
2023/06/23 03:29:38;;;;;;;30.33;17.65;;;;;;;;;;5035327;28;20029;-75
2023/06/23 03:32:05;;;;;;;30.58;18.23;;;;;;;;;;5035243;28;20492;-74
2023/06/23 03:34:41;;;;;;;30.13;19.23;;;;;;;;;;5035087;28;20407;-74
2023/06/23 03:37:08;;;;;;;31.73;19.55;;;;;;;;;;5035158;28;20109;-74
2023/06/23 03:39:36;;;;;;;29.02;18.67;;;;;;;;;;5034952;28;20033;-74
2023/06/23 03:42:03;;;;;;;32.88;18.90;;;;;;;;;;5034976;28;20394;-75
2023/06/23 03:44:40;;;;;;;31.08;18.92;;;;;;;;;;5035050;28;20064;-75
2023/06/23 03:47:33;;;;;;;31.08;18.95;;;;;;;;;;5034912;28;20018;-74
2023/06/23 03:50:03;;;;;;;28.40;18.85;;;;;;;;;;5033240;28;20116;-74
2023/06/23 03:52:29;;;;;;;30.60;19.98;;;;;;;;;;5034628;28;20057;-75
2023/06/23 03:54:56;;;;;;;28.88;18.33;;;;;;;;;;5034720;28;20450;-75
2023/06/23 03:57:29;;;;;;;29.83;17.55;;;;;;;;;;5034576;28;20033;-75
2023/06/23 03:59:55;;;;;;;30.17;18.35;;;;;;;;;;5035097;28;20041;-75
2023/06/23 04:02:24;;;;;;;28.75;18.50;;;;;;;;;;5034433;28;20029;-75
2023/06/23 04:04:50;;;;;;;30.83;19.02;;;;;;;;;;5034499;28;20036;-74
2023/06/23 04:07:18;;;;;;;28.38;17.33;;;;;;;;;;5034421;28;20022;-75
2023/06/23 04:09:46;;;;;;;31.48;20.35;;;;;;;;;;5034491;28;20098;-75
2023/06/23 04:12:13;;;;;;;30.98;19.90;;;;;;;;;;5034378;28;20029;-75
2023/06/23 04:14:40;;;;;;;31.30;19.00;;;;;;;;;;5033408;28;20033;-74
2023/06/23 04:17:08;;;;;;;27.35;18.17;;;;;;;;;;5034225;28;20566;-75
2023/06/23 04:19:36;;;;;;;24.63;15.93;;;;;;;;;;5034367;28;20460;-74
2023/06/23 04:22:03;;;;;;;26.13;15.70;;;;;;;;;;5033917;28;20029;-75
2023/06/23 04:24:30;;;;;;;23.10;15.90;;;;;;;;;;5034027;28;20034;-74
2023/06/23 04:26:58;;;;;;;24.08;16.30;;;;;;;;;;5034118;28;20029;-75
2023/06/23 04:29:24;;;;;;;20.27;13.95;;;;;;;;;;5034150;28;20033;-75
2023/06/23 04:31:52;;;;;;;21.02;14.23;;;;;;;;;;5033982;28;20415;-75
2023/06/23 04:34:18;;;;;;;17.70;13.63;;;;;;;;;;5033942;28;20025;-75
2023/06/23 04:36:46;;;;;;;18.10;13.07;;;;;;;;;;5033827;28;20032;-74
2023/06/23 04:39:32;;;;;;;17.10;12.93;;;;;;;;;;5033821;28;20113;-75
2023/06/23 04:42:03;;;;;;;15.10;12.15;;;;;;;;;;5033380;28;20036;-75
2023/06/23 04:44:30;;;;;;;14.23;11.82;;;;;;;;;;5033735;28;20129;-75
2023/06/23 04:46:59;;;;;;;13.25;10.80;;;;;;;;;;5033578;28;20349;-75
2023/06/23 04:49:27;;;;;;;13.67;11.17;;;;;;;;;;5033594;28;20075;-75
2023/06/23 04:51:54;;;;;;;13.77;10.35;;;;;;;;;;5032422;28;20091;-75
2023/06/23 04:54:26;;;;;;;12.18;9.80;;;;;;;;;;5033804;28;20447;-75
2023/06/23 04:57:00;;;;;;;13.07;10.60;;;;;;;;;;5033467;28;20034;-75
2023/06/23 04:59:26;;;;;;;12.00;9.65;;;;;;;;;;5032128;28;20033;-75
2023/06/23 05:01:54;;;;;;;13.30;9.80;;;;;;;;;;5033228;28;20031;-75
2023/06/23 05:04:21;;;;;;;13.48;9.73;;;;;;;;;;5033095;28;20034;-75
2023/06/23 05:06:47;;;;;;;13.40;9.40;;;;;;;;;;5032770;28;20022;-76
2023/06/23 05:09:14;;;;;;;11.13;8.50;;;;;;;;;;5032957;28;20595;-76
2023/06/23 05:11:42;;;;;;;10.38;8.27;;;;;;;;;;5033195;28;20021;-76
2023/06/23 05:14:08;;;;;;;12.85;9.77;;;;;;;;;;5032695;28;20026;-76
2023/06/23 05:16:35;;;;;;;12.57;10.10;;;;;;;;;;5032794;28;20450;-76
2023/06/23 05:19:02;;;;;;;13.80;9.68;;;;;;;;;;5032871;28;20025;-76
2023/06/23 05:21:29;;;;;;;12.55;9.82;;;;;;;;;;5032701;28;20034;-76
2023/06/23 05:23:56;;;;;;;11.57;8.45;;;;;;;;;;5032711;28;20465;-75
2023/06/23 05:26:24;;;;;;;12.98;9.27;;;;;;;;;;5032525;28;20029;-76
2023/06/23 05:28:53;;;;;;;10.93;9.50;;;;;;;;;;5033128;28;20107;-75
2023/06/23 05:31:20;;;;;;;12.35;8.00;;;;;;;;;;5033613;28;20029;-75
2023/06/23 05:33:47;;;;;;;12.85;9.20;;;;;;;;;;5033907;28;20364;-75
2023/06/23 05:36:14;;;;;;;9.68;7.80;;;;;;;;;;5034528;28;20031;-75
2023/06/23 05:38:41;;;;;;;10.32;8.80;;;;;;;;;;5034075;28;20372;-75
2023/06/23 05:41:07;;;;;;;9.05;8.02;;;;;;;;;;5032857;28;20037;-75
2023/06/23 05:43:34;;;;;;;9.40;8.15;;;;;;;;;;5032678;28;20033;-76
2023/06/23 05:46:01;;;;;;;9.43;8.43;;;;;;;;;;5027760;28;20030;-75
2023/06/23 05:48:28;;;;;;;10.50;8.73;;;;;;;;;;5015000;28;20046;-75
2023/06/23 05:50:59;;;;;;;10.65;9.30;;;;;;;;;;5025796;28;20034;-75
2023/06/23 05:53:25;;;;;;;10.68;8.50;;;;;;;;;;5035691;28;20416;-75
2023/06/23 05:56:06;;;;;;;11.00;8.65;;;;;;;;;;5035265;28;20472;-75
2023/06/23 05:58:34;;;;;;;10.23;9.10;;;;;;;;;;5034996;28;20028;-75
2023/06/23 06:01:01;;;;;;;9.77;8.32;;;;;;;;;;5034440;28;20033;-75
2023/06/23 06:03:30;;;;;;;10.88;9.05;;;;;;;;;;5034744;28;20085;-75
2023/06/23 06:06:00;;;;;;;10.85;9.27;;;;;;;;;;5034581;28;20342;-75
2023/06/23 06:08:26;;;;;;;9.82;8.60;;;;;;;;;;5033943;28;20049;-75
2023/06/23 06:10:53;;;;;;;9.77;8.27;;;;;;;;;;5033417;28;20041;-75
2023/06/23 06:13:21;;;;;;;9.85;7.88;;;;;;;;;;5033995;28;20434;-76
2023/06/23 06:15:47;;;;;;;8.38;6.82;;;;;;;;;;5033756;28;20026;-76
2023/06/23 06:18:14;;;;;;;8.25;7.07;;;;;;;;;;5033611;28;20469;-76
2023/06/23 06:20:41;;;;;;;9.75;8.75;;;;;;;;;;5035030;28;20031;-77
2023/06/23 06:23:08;;;;;;;9.80;8.35;;;;;;;;;;5035160;28;20021;-76
2023/06/23 06:25:35;;;;;;;8.82;7.80;;;;;;;;;;5033424;28;20029;-76
2023/06/23 06:28:04;;;;;;;7.88;7.07;;;;;;;;;;5033315;28;20093;-76
2023/06/23 06:30:30;;;;;;;7.32;6.32;;;;;;;;;;5031037;28;20387;-76
2023/06/23 06:32:57;;;;;;;6.80;5.95;;;;;;;;;;5032929;28;20064;-76
2023/06/23 06:35:23;;;;;;;7.15;5.78;;;;;;;;;;5032926;28;20030;-76
2023/06/23 06:37:51;;;;;;;5.22;4.72;;;;;;;;;;5035657;28;20026;-76
2023/06/23 06:40:21;;;;;;;7.18;4.85;;;;;;;;;;5037054;28;20020;-76
2023/06/23 06:42:47;;;;;;;8.25;4.88;;;;;;;;;;5036583;28;20065;-76
2023/06/23 06:45:13;;;;;;;5.53;4.60;;;;;;;;;;5035832;28;20476;-76
2023/06/23 06:47:43;;;;;;;7.15;5.68;;;;;;;;;;5035868;28;20026;-76
2023/06/23 06:50:10;;;;;;;4.88;3.75;;;;;;;;;;5036072;28;20472;-76
2023/06/23 06:52:37;;;;;;;6.50;5.07;;;;;;;;;;5035775;28;20053;-76
2023/06/23 06:55:03;;;;;;;7.60;4.32;;;;;;;;;;5036145;28;20508;-76
2023/06/23 06:57:30;;;;;;;6.63;4.60;;;;;;;;;;5035675;28;20025;-76
2023/06/23 06:59:56;;;;;;;5.90;4.63;;;;;;;;;;5035665;28;20453;-76
2023/06/23 07:02:22;;;;;;;6.03;5.05;;;;;;;;;;5036516;28;20035;-76
2023/06/23 07:04:48;;;;;;;8.68;5.22;;;;;;;;;;5037396;28;20109;-76
2023/06/23 07:07:15;;;;;;;5.63;4.65;;;;;;;;;;5036499;28;20026;-76
2023/06/23 07:09:40;;;;;;;6.15;5.10;;;;;;;;;;5036282;28;20034;-76
2023/06/23 07:12:07;;;;;;;4.90;4.40;;;;;;;;;;5036619;28;20037;-76
2023/06/23 07:14:33;;;;;;;5.18;4.70;;;;;;;;;;5037458;28;20014;-76
2023/06/23 07:16:59;;;;;;;4.80;4.30;;;;;;;;;;5035925;28;20386;-76
2023/06/23 07:19:25;;;;;;;6.38;4.35;;;;;;;;;;5035407;28;20517;-76
2023/06/23 07:21:51;;;;;;;6.47;4.78;;;;;;;;;;5035275;28;20018;-76
2023/06/23 07:24:17;;;;;;;4.80;4.25;;;;;;;;;;5034885;28;21500;-76
2023/06/23 07:26:43;;;;;;;6.70;4.60;;;;;;;;;;5035280;28;20032;-76
2023/06/23 07:29:09;;;;;;;5.60;4.22;;;;;;;;;;5034766;28;20026;-76
2023/06/23 07:31:37;;;;;;;4.22;3.83;;;;;;;;;;5035320;28;20033;-75
2023/06/23 07:34:03;;;;;;;4.70;4.18;;;;;;;;;;5035025;28;20471;-75
2023/06/23 07:36:29;;;;;;;5.88;4.15;;;;;;;;;;5034640;28;20491;-75
2023/06/23 07:38:55;;;;;;;3.97;3.40;;;;;;;;;;5034484;28;20112;-75
2023/06/23 07:41:21;;;;;;;5.18;3.80;;;;;;;;;;5034400;28;20025;-76
2023/06/23 07:43:47;;;;;;;4.47;3.58;;;;;;;;;;5032836;28;20034;-75
2023/06/23 07:46:13;;;;;;;5.63;3.42;;;;;;;;;;5034315;28;20360;-76
2023/06/23 07:48:39;;;;;;;4.07;3.67;;;;;;;;;;5034405;28;20072;-76
2023/06/23 07:51:05;;;;;;;4.97;3.63;;;;;;;;;;5034421;28;20496;-75
2023/06/23 07:53:31;;;;;;;5.30;4.05;;;;;;;;;;5034194;28;20037;-76
2023/06/23 07:55:57;;;;;;;5.28;3.83;;;;;;;;;;5030393;28;20041;-76
2023/06/23 07:58:23;;;;;;;5.28;3.75;;;;;;;;;;5034239;28;20029;-76
2023/06/23 08:00:49;;;;;;;5.63;3.73;;;;;;;;;;5034301;28;20030;-76
2023/06/23 08:03:15;;;;;;;5.22;3.70;;;;;;;;;;5034518;28;20112;-76
2023/06/23 08:05:41;;;;;;;4.30;3.47;;;;;;;;;;5034302;28;20105;-76
2023/06/23 08:08:07;;;;;;;5.28;3.80;;;;;;;;;;5033145;28;20022;-76
2023/06/23 08:10:33;;;;;;;3.83;3.17;;;;;;;;;;5034210;28;20408;-76
2023/06/23 08:12:59;;;;;;;5.60;4.50;;;;;;;;;;5034293;28;20108;-76
2023/06/23 08:15:25;;;;;;;5.32;4.47;;;;;;;;;;5035378;28;20032;-76
2023/06/23 08:17:51;;;;;;;5.05;4.47;;;;;;;;;;5034165;28;20549;-76
2023/06/23 08:20:17;;;;;;;4.93;4.47;;;;;;;;;;5034251;28;20030;-75
2023/06/23 08:22:44;;;;;;;7.78;4.63;;;;;;;;;;5034698;28;20033;-75
2023/06/23 08:25:10;;;;;;;4.70;4.20;;;;;;;;;;5034742;28;20034;-75
2023/06/23 08:27:36;;;;;;;5.45;4.30;;;;;;;;;;5034370;28;20049;-75
2023/06/23 08:30:02;;;;;;;5.95;4.40;;;;;;;;;;5034688;28;20448;-75
2023/06/23 08:32:28;;;;;;;6.75;4.68;;;;;;;;;;5034951;28;20075;-75
2023/06/23 08:34:54;;;;;;;5.25;4.45;;;;;;;;;;5035852;28;20104;-76
2023/06/23 08:37:20;;;;;;;4.53;4.07;;;;;;;;;;5019807;28;20026;-75
2023/06/23 08:39:46;;;;;;;5.72;5.22;;;;;;;;;;5027873;28;20064;-75
2023/06/23 08:42:13;;;;;;;4.78;3.92;;;;;;;;;;5032683;28;20384;-76
2023/06/23 08:44:41;;;;;;;5.72;5.13;;;;;;;;;;5033463;28;20068;-75
2023/06/23 08:47:12;;;;;;;5.53;4.80;;;;;;;;;;5033247;28;20029;-75
2023/06/23 08:49:39;;;;;;;5.80;5.10;;;;;;;;;;5033524;28;20532;-75
2023/06/23 08:52:05;;;;;;;5.38;4.88;;;;;;;;;;5032188;28;20043;-76
2023/06/23 08:54:32;;;;;;;5.25;4.53;;;;;;;;;;5033223;28;20071;-76
2023/06/23 08:56:58;;;;;;;5.80;4.35;;;;;;;;;;5032694;28;20030;-75
2023/06/23 08:59:24;;;;;;;6.45;5.07;;;;;;;;;;5028938;28;20010;-75
2023/06/23 09:01:51;;;;;;;4.03;3.63;;;;;;;;;;5031983;28;20021;-75
2023/06/23 09:04:17;;;;;;;6.30;4.63;;;;;;;;;;5020272;28;20045;-75
2023/06/23 09:06:43;;;;;;;5.75;3.95;;;;;;;;;;5022466;28;20029;-75
2023/06/23 09:09:10;;;;;;;5.97;4.50;;;;;;;;;;5032894;28;20095;-75
2023/06/23 09:11:36;;;;;;;4.38;3.80;;;;;;;;;;5033259;28;20091;-75
2023/06/23 09:14:02;;;;;;;6.95;3.75;;;;;;;;;;5028469;28;20367;-75
2023/06/23 09:16:28;;;;;;;6.15;4.60;;;;;;;;;;5032584;28;20017;-75
2023/06/23 09:18:55;;;;;;;4.38;3.75;;;;;;;;;;5019424;28;20029;-75
2023/06/23 09:21:21;;;;;;;5.05;4.10;;;;;;;;;;5032456;28;20073;-75
2023/06/23 09:24:04;;;;;;;4.40;4.00;;;;;;;;;;5016941;28;20034;-75
2023/06/23 09:26:30;;;;;;;4.88;4.38;;;;;;;;;;5013224;28;20092;-75
2023/06/23 09:29:15;;;;;;;5.30;4.63;;;;;;;;;;5012793;28;20108;-75
2023/06/23 09:31:42;;;;;;;4.65;4.25;;;;;;;;;;5012832;28;20048;-75
2023/06/23 09:34:08;;;;;;;4.95;4.30;;;;;;;;;;5012776;28;20018;-75
2023/06/23 09:36:35;;;;;;;4.68;4.00;;;;;;;;;;5012750;28;20033;-75
2023/06/23 09:39:01;;;;;;;4.32;3.88;;;;;;;;;;5012676;28;20497;-75
2023/06/23 09:41:31;;;;;;;4.25;3.85;;;;;;;;;;5012703;28;20030;-75
2023/06/23 09:44:03;;;;;;;4.68;3.88;;;;;;;;;;5032407;28;20155;-75
2023/06/23 09:46:32;;;;;;;5.45;4.25;;;;;;;;;;5025654;28;20030;-74
2023/06/23 09:49:00;;;;;;;6.28;5.13;;;;;;;;;;5030206;28;20029;-74
2023/06/23 09:51:26;;;;;;;7.35;4.60;;;;;;;;;;5032484;28;20055;-74
2023/06/23 09:53:52;;;;;;;5.32;4.40;;;;;;;;;;5023892;28;20492;-74
2023/06/23 09:56:19;;;;;;;5.63;4.30;;;;;;;;;;5027102;28;20094;-74
2023/06/23 09:58:45;;;;;;;4.30;3.90;;;;;;;;;;5032096;28;20022;-74
2023/06/23 10:01:15;;;;;;;4.63;3.90;;;;;;;;;;5017354;28;20026;-76
2023/06/23 10:03:51;;;;;;;5.97;4.60;;;;;;;;;;5012569;28;20481;-75
2023/06/23 10:06:35;;;;;;;5.50;4.05;;;;;;;;;;5016277;28;20167;-75
2023/06/23 10:09:03;;;;;;;5.63;3.75;;;;;;;;;;5026084;28;20101;-75
2023/06/23 10:11:33;;;;;;;7.03;3.97;;;;;;;;;;5032421;28;20418;-75
2023/06/23 10:14:05;;;;;;;5.10;3.80;;;;;;;;;;5051386;28;20104;-75
2023/06/23 10:16:32;;;;;;;5.05;3.85;;;;;;;;;;5036563;28;20074;-75
2023/06/23 10:18:58;;;;;;;5.28;3.70;;;;;;;;;;5035902;28;20025;-75
2023/06/23 10:21:24;;;;;;;5.22;4.22;;;;;;;;;;5035990;28;20037;-75
2023/06/23 10:23:51;;;;;;;4.05;3.63;;;;;;;;;;5035814;28;20364;-75
2023/06/23 10:26:18;;;;;;;5.82;4.30;;;;;;;;;;5036023;28;20498;-75
2023/06/23 10:28:46;;;;;;;6.50;4.10;;;;;;;;;;5035843;28;20033;-75
2023/06/23 10:31:12;;;;;;;3.90;3.60;;;;;;;;;;5035792;28;20353;-75
2023/06/23 10:33:39;;;;;;;4.55;3.70;;;;;;;;;;5035783;28;20033;-75
2023/06/23 10:36:07;;;;;;;5.40;3.75;;;;;;;;;;5035873;28;20365;-75
2023/06/23 10:38:33;;;;;;;4.63;3.33;;;;;;;;;;5035989;28;20455;-75
2023/06/23 10:41:00;;;;;;;5.28;3.72;;;;;;;;;;5035996;28;20021;-75
2023/06/23 10:43:30;;;;;;;4.80;3.42;;;;;;;;;;5035549;28;20033;-75
2023/06/23 10:45:56;;;;;;;4.47;3.00;;;;;;;;;;5035842;28;20040;-75
2023/06/23 10:48:23;;;;;;;6.00;3.50;;;;;;;;;;5035407;28;20376;-75
2023/06/23 10:50:49;;;;;;;5.35;3.25;;;;;;;;;;5035447;28;20108;-75
2023/06/23 10:53:17;;;;;;;8.05;3.17;;;;;;;;;;5035134;28;20099;-75
2023/06/23 10:55:46;;;;;;;5.00;2.90;;;;;;;;;;5035462;28;20075;-75
2023/06/23 10:58:14;;;;;;;4.15;3.30;;;;;;;;;;5035332;28;20018;-75
2023/06/23 11:00:43;;;;;;;4.82;3.25;;;;;;;;;;5035097;28;20365;-75
2023/06/23 11:03:23;;;;;;;3.03;2.55;;;;;;;;;;5045715;28;20116;-75
2023/06/23 11:05:53;;;;;;;5.35;3.20;;;;;;;;;;5015527;28;20542;-75
2023/06/23 11:08:19;;;;;;;;;;;;;;;;;;5016089;28;20412;-76
2023/06/23 11:10:52;;;;;;;4.20;3.08;;;;;;;;;;5015732;28;19910;-76
2023/06/23 11:13:18;;;;;;;4.28;2.80;;;;;;;;;;5015300;28;20106;-75
2023/06/23 11:16:14;;;;;;;5.32;2.58;;;;;;;;;;5016530;28;20053;-76
2023/06/23 11:18:51;;;;;;;6.13;3.13;;;;;;;;;;5018296;28;20061;-76
2023/06/23 11:21:18;;;;;;;5.00;3.30;;;;;;;;;;5015103;28;20026;-76
2023/06/23 11:24:03;;;;;;;4.65;2.97;;;;;;;;;;5015075;28;20088;-76
2023/06/23 11:26:30;;;;;;;5.78;2.90;;;;;;;;;;5024979;28;20026;-76
2023/06/23 11:28:56;;;;;;;7.22;3.08;;;;;;;;;;5015023;28;20080;-76
2023/06/23 11:31:27;;;;;;;4.88;3.20;;;;;;;;;;5014894;28;20108;-76
2023/06/23 11:33:59;;;;;;;4.32;3.13;;;;;;;;;;5015354;28;20131;-76
2023/06/23 11:36:26;;;;;;;4.90;3.30;;;;;;;;;;5015008;28;20029;-76
2023/06/23 11:38:55;;;;;;;4.88;2.70;;;;;;;;;;5019555;28;20025;-76
2023/06/23 11:41:25;;;;;;;5.65;3.38;;;;;;;;;;5034813;28;20022;-76
2023/06/23 11:43:56;;;;;;;7.57;3.08;;;;;;;;;;5037023;28;20099;-76
2023/06/23 11:46:22;;;;;;;7.15;2.90;;;;;;;;;;5035198;28;20104;-76
2023/06/23 11:48:48;;;;;;;5.40;3.05;;;;;;;;;;5034477;28;20101;-76
2023/06/23 11:51:15;;;;;;;3.75;2.55;;;;;;;;;;5034347;28;20372;-76
2023/06/23 11:53:41;;;;;;;4.47;2.85;;;;;;;;;;5027232;28;20124;-75
2023/06/23 11:56:07;;;;;;;3.30;2.55;;;;;;;;;;5027898;28;20026;-76
2023/06/23 11:58:34;;;;;;;2.92;2.60;;;;;;;;;;5035049;28;20027;-77
2023/06/23 12:01:00;;;;;;;3.15;2.30;;;;;;;;;;5035184;28;20021;-76
2023/06/23 12:03:28;;;;;;;4.45;2.88;;;;;;;;;;5034595;28;20104;-77
2023/06/23 12:05:54;;;;;;;5.32;2.85;;;;;;;;;;5034042;28;20071;-76
2023/06/23 12:08:24;;;;;;;3.95;2.60;;;;;;;;;;5033596;28;20025;-77
2023/06/23 12:10:52;;;;;;;6.70;3.03;;;;;;;;;;5033848;28;20032;-77
2023/06/23 12:13:19;;;;;;;5.17;2.53;;;;;;;;;;5025790;28;20356;-77
2023/06/23 12:15:45;;;;;;;2.88;2.22;;;;;;;;;;5019003;28;20076;-76
2023/06/23 12:18:12;;;;;;;3.40;3.00;;;;;;;;;;5014472;28;20100;-76
2023/06/23 12:20:39;;;;;;;4.97;3.20;;;;;;;;;;5014344;28;20022;-77
2023/06/23 12:23:06;;;;;;;3.40;2.55;;;;;;;;;;5015685;28;20029;-77
2023/06/23 12:25:33;;;;;;;6.47;2.58;;;;;;;;;;5015647;28;20041;-76
2023/06/23 12:27:59;;;;;;;2.83;2.50;;;;;;;;;;5033844;28;20049;-77
2023/06/23 12:30:26;;;;;;;3.67;2.67;;;;;;;;;;5033674;28;20030;-76
2023/06/23 12:32:55;;;;;;;4.15;2.70;;;;;;;;;;5033942;28;20022;-76
2023/06/23 12:35:21;;;;;;;3.40;3.00;;;;;;;;;;5033315;28;20021;-76
2023/06/23 12:37:48;;;;;;;3.70;2.83;;;;;;;;;;5033819;28;20247;-76
2023/06/23 12:40:32;;;;;;;5.68;3.20;;;;;;;;;;5033807;28;20151;-76
2023/06/23 12:42:59;;;;;;;5.43;2.97;;;;;;;;;;5033520;28;20079;-76
2023/06/23 12:45:25;;;;;;;5.88;3.20;;;;;;;;;;5026765;28;20033;-76
2023/06/23 12:48:01;;;;;;;3.97;2.85;;;;;;;;;;5014499;28;20108;-76
2023/06/23 12:50:27;;;;;;;3.88;2.83;;;;;;;;;;5013682;28;20029;-77
2023/06/23 12:52:54;;;;;;;3.60;2.83;;;;;;;;;;5013240;28;20386;-76
2023/06/23 12:55:20;;;;;;;5.72;2.95;;;;;;;;;;5013350;28;20030;-76
2023/06/23 12:57:47;;;;;;;3.15;2.50;;;;;;;;;;5013297;28;20034;-77
2023/06/23 13:00:13;;;;;;;4.00;2.85;;;;;;;;;;5013541;28;20423;-76
2023/06/23 13:02:40;;;;;;;4.55;2.95;;;;;;;;;;5012015;28;20500;-76
2023/06/23 13:05:06;;;;;;;4.70;2.72;;;;;;;;;;5013277;28;20641;-76
2023/06/23 13:07:32;;;;;;;4.03;2.85;;;;;;;;;;5027756;28;20033;-76
2023/06/23 13:09:58;;;;;;;3.22;2.90;;;;;;;;;;5032783;28;20028;-75
2023/06/23 13:12:24;;;;;;;4.60;2.67;;;;;;;;;;5032825;28;20029;-75
2023/06/23 13:14:52;;;;;;;6.28;2.80;;;;;;;;;;5032831;28;20400;-75
2023/06/23 13:17:19;;;;;;;5.32;3.17;;;;;;;;;;5033190;28;20076;-75
2023/06/23 13:19:45;;;;;;;4.25;2.50;;;;;;;;;;5033082;28;20104;-75
2023/06/23 13:22:11;;;;;;;4.43;2.70;;;;;;;;;;5032690;28;20128;-75
2023/06/23 13:24:37;;;;;;;4.10;3.08;;;;;;;;;;5022240;28;20033;-75
2023/06/23 13:27:08;;;;;;;3.15;2.83;;;;;;;;;;5017307;28;20095;-75
2023/06/23 13:29:34;;;;;;;3.50;2.25;;;;;;;;;;5033399;28;20026;-75
2023/06/23 13:32:00;;;;;;;3.72;2.90;;;;;;;;;;5022724;28;20033;-76
2023/06/23 13:34:26;;;;;;;3.33;2.67;;;;;;;;;;5035909;28;20025;-75
2023/06/23 13:36:52;;;;;;;5.22;2.70;;;;;;;;;;5036711;28;20015;-76
2023/06/23 13:39:19;;;;;;;5.70;3.22;;;;;;;;;;5034425;28;20460;-75
2023/06/23 13:41:45;;;;;;;2.97;2.78;;;;;;;;;;5033619;28;20025;-76
2023/06/23 13:44:13;;;;;;;4.13;2.85;;;;;;;;;;5032609;28;20025;-76
2023/06/23 13:46:39;;;;;;;3.45;2.88;;;;;;;;;;5033026;28;20061;-75
2023/06/23 13:49:05;;;;;;;7.35;3.30;;;;;;;;;;5033266;28;20033;-76
2023/06/23 13:51:31;;;;;;;4.55;2.58;;;;;;;;;;5033758;28;20026;-75
2023/06/23 13:53:57;;;;;;;3.45;3.15;;;;;;;;;;5033104;28;20042;-75
2023/06/23 13:56:23;;;;;;;5.25;3.10;;;;;;;;;;5032580;28;20026;-76
2023/06/23 13:58:49;;;;;;;4.18;2.42;;;;;;;;;;5024234;28;20457;-76
2023/06/23 14:01:15;;;;;;;2.63;2.00;;;;;;;;;;5028851;28;20030;-75
2023/06/23 14:03:41;;;;;;;3.60;2.92;;;;;;;;;;5033292;28;20070;-75
2023/06/23 14:06:07;;;;;;;5.35;2.70;;;;;;;;;;5033120;28;20030;-75
2023/06/23 14:08:35;;;;;;;5.13;2.97;;;;;;;;;;5032878;28;20106;-75
2023/06/23 14:11:01;;;;;;;3.45;2.78;;;;;;;;;;5033177;28;20611;-76
2023/06/23 14:13:27;;;;;;;4.65;3.20;;;;;;;;;;5033432;28;20038;-75
2023/06/23 14:15:53;;;;;;;4.20;3.00;;;;;;;;;;5033155;28;20092;-75
2023/06/23 14:18:19;;;;;;;5.13;3.13;;;;;;;;;;5032622;28;20021;-75
2023/06/23 14:20:45;;;;;;;6.57;3.40;;;;;;;;;;5032702;28;20091;-76
2023/06/23 14:23:11;;;;;;;4.30;3.15;;;;;;;;;;5031997;28;20381;-75
2023/06/23 14:25:37;;;;;;;6.30;3.47;;;;;;;;;;5031983;28;20033;-75
2023/06/23 14:28:04;;;;;;;4.18;2.97;;;;;;;;;;5031984;28;20022;-75
2023/06/23 14:30:30;;;;;;;3.75;2.70;;;;;;;;;;5032268;28;20060;-75
2023/06/23 14:32:56;;;;;;;3.70;2.92;;;;;;;;;;5031744;28;20040;-75
2023/06/23 14:35:22;;;;;;;5.53;2.42;;;;;;;;;;5031941;28;20030;-75
2023/06/23 14:37:48;;;;;;;4.22;2.70;;;;;;;;;;5021680;28;20026;-75